createdAt,value
2022-12-07T00:01:17.897Z,3.27
2022-12-07T00:03:46.480Z,5.70
2022-12-07T00:06:15.427Z,3.33
2022-12-07T00:08:42.216Z,5.20
2022-12-07T00:11:11.457Z,2.50
2022-12-07T00:13:38.934Z,10.53
2022-12-07T00:16:27.057Z,3.60
2022-12-07T00:18:54.146Z,4.90
2022-12-07T00:21:27.165Z,6.77
2022-12-07T00:23:54.774Z,5.70
2022-12-07T00:26:24.177Z,2.47
2022-12-07T00:28:55.987Z,3.97
2022-12-07T00:31:25.121Z,3.20
2022-12-07T00:33:52.208Z,4.57
2022-12-07T00:36:26.348Z,8.03
2022-12-07T00:38:54.843Z,5.03
2022-12-07T00:41:23.794Z,5.10
2022-12-07T00:43:51.477Z,4.60
2022-12-07T00:46:19.250Z,2.70
2022-12-07T00:48:46.805Z,5.13
2022-12-07T00:51:14.835Z,2.87
2022-12-07T00:53:42.281Z,3.43
2022-12-07T00:56:16.064Z,3.20
2022-12-07T00:58:42.845Z,4.30
2022-12-07T01:01:10.955Z,4.00
2022-12-07T01:03:38.907Z,2.97
2022-12-07T01:06:06.094Z,6.73
2022-12-07T01:08:33.306Z,3.03
2022-12-07T01:11:06.186Z,14.93
2022-12-07T01:13:33.820Z,4.60
2022-12-07T01:16:01.959Z,6.10
2022-12-07T01:18:29.815Z,3.80
2022-12-07T01:21:03.381Z,3.90
2022-12-07T01:23:31.079Z,5.47
2022-12-07T01:26:02.508Z,5.70
2022-12-07T01:28:29.569Z,5.47
2022-12-07T01:31:13.346Z,2.80
2022-12-07T01:33:40.562Z,5.73
2022-12-07T01:36:13.677Z,2.70
2022-12-07T01:38:40.532Z,8.40
2022-12-07T01:41:07.426Z,2.47
2022-12-07T01:43:34.876Z,4.00
2022-12-07T01:46:02.898Z,4.03
2022-12-07T01:48:35.946Z,6.20
2022-12-07T01:51:05.804Z,6.40
2022-12-07T01:53:33.466Z,3.73
2022-12-07T01:56:00.417Z,2.80
2022-12-07T01:58:27.456Z,7.13
2022-12-07T02:00:54.185Z,5.93
2022-12-07T02:03:32.696Z,3.40
2022-12-07T02:06:00.366Z,3.80
2022-12-07T02:08:27.289Z,3.60
2022-12-07T02:10:53.974Z,3.80
2022-12-07T02:13:23.240Z,3.53
2022-12-07T02:16:08.459Z,6.00
2022-12-07T02:19:10.118Z,3.33
2022-12-07T02:21:46.095Z,4.80
2022-12-07T02:24:24.730Z,5.70
2022-12-07T02:27:09.359Z,4.20
2022-12-07T02:29:51.346Z,5.00
2022-12-07T02:32:28.927Z,5.73
2022-12-07T02:35:03.102Z,5.13
2022-12-07T02:37:35.610Z,3.50
2022-12-07T02:40:11.444Z,2.97
2022-12-07T02:42:44.071Z,3.00
2022-12-07T02:45:14.077Z,5.73
2022-12-07T02:47:40.934Z,12.00
2022-12-07T02:50:08.543Z,4.20
2022-12-07T02:52:35.264Z,3.07
2022-12-07T02:55:02.182Z,4.53
2022-12-07T02:57:42.936Z,3.07
2022-12-07T03:00:15.858Z,4.30
2022-12-07T03:02:45.417Z,3.47
2022-12-07T03:05:30.558Z,4.50
2022-12-07T03:08:38.439Z,3.73
2022-12-07T03:11:08.246Z,8.00
2022-12-07T03:13:46.688Z,2.90
2022-12-07T03:16:36.520Z,3.37
2022-12-07T03:19:12.847Z,3.03
2022-12-07T03:21:41.403Z,5.57
2022-12-07T03:24:17.175Z,6.37
2022-12-07T03:26:47.164Z,3.00
2022-12-07T03:29:28.673Z,5.83
2022-12-07T03:32:00.605Z,3.90
2022-12-07T03:34:35.795Z,4.33
2022-12-07T03:37:07.370Z,4.50
2022-12-07T03:39:54.615Z,3.90
2022-12-07T03:42:21.247Z,6.60
2022-12-07T03:44:48.336Z,8.53
2022-12-07T03:47:23.616Z,5.50
2022-12-07T03:50:07.838Z,3.67
2022-12-07T03:52:43.925Z,3.53
2022-12-07T03:55:34.047Z,4.13
2022-12-07T03:58:04.565Z,4.13
2022-12-07T04:00:31.926Z,5.40
2022-12-07T04:02:59.298Z,4.57
2022-12-07T04:05:26.522Z,5.67
2022-12-07T04:07:53.336Z,2.60
2022-12-07T04:10:19.996Z,4.50
2022-12-07T04:12:46.717Z,3.90
2022-12-07T04:15:13.465Z,3.43
2022-12-07T04:17:40.105Z,5.17
2022-12-07T04:20:07.609Z,4.43
2022-12-07T04:22:34.258Z,4.80
2022-12-07T04:25:00.955Z,3.03
2022-12-07T04:27:27.677Z,3.20
2022-12-07T04:29:54.595Z,6.93
2022-12-07T04:32:21.274Z,5.13
2022-12-07T04:34:51.405Z,4.40
2022-12-07T04:37:20.817Z,4.03
2022-12-07T04:39:47.499Z,7.70
2022-12-07T04:42:14.303Z,4.63
2022-12-07T04:44:41.040Z,4.27
2022-12-07T04:47:07.889Z,10.57
2022-12-07T04:49:35.215Z,4.83
2022-12-07T04:52:02.075Z,3.37
2022-12-07T04:54:28.963Z,4.43
2022-12-07T04:56:55.664Z,3.53
2022-12-07T04:59:22.445Z,4.77
2022-12-07T05:01:49.230Z,5.10
2022-12-07T05:04:17.414Z,2.93
2022-12-07T05:06:44.111Z,4.10
2022-12-07T05:09:10.928Z,2.87
2022-12-07T05:11:40.910Z,5.83
2022-12-07T05:14:09.719Z,4.77
2022-12-07T05:16:36.725Z,8.93
2022-12-07T05:19:04.245Z,3.53
2022-12-07T05:21:30.814Z,8.03
2022-12-07T05:23:57.708Z,8.83
2022-12-07T05:26:24.346Z,11.93
2022-12-07T05:28:52.516Z,15.00
2022-12-07T05:31:19.503Z,8.23
2022-12-07T05:33:46.165Z,5.23
2022-12-07T05:36:12.791Z,7.00
2022-12-07T05:38:39.349Z,5.20
2022-12-07T05:41:07.188Z,4.83
2022-12-07T05:43:34.192Z,9.73
2022-12-07T05:46:01.226Z,3.03
2022-12-07T05:48:27.922Z,4.47
2022-12-07T05:50:54.552Z,5.90
2022-12-07T05:53:23.218Z,4.53
2022-12-07T05:55:50.158Z,2.87
2022-12-07T05:58:35.596Z,8.23
2022-12-07T06:01:02.279Z,4.43
2022-12-07T06:03:29.133Z,5.43
2022-12-07T06:05:56.062Z,5.87
2022-12-07T06:08:23.071Z,5.20
2022-12-07T06:11:09.698Z,6.33
2022-12-07T06:13:38.444Z,3.70
2022-12-07T06:16:08.483Z,2.80
2022-12-07T06:18:35.309Z,2.23
2022-12-07T06:21:02.091Z,6.17
2022-12-07T06:23:28.841Z,5.70
2022-12-07T06:25:55.442Z,11.83
2022-12-07T06:28:22.123Z,12.27
2022-12-07T06:30:48.902Z,9.60
2022-12-07T06:33:15.551Z,11.10
2022-12-07T06:35:42.574Z,6.20
2022-12-07T06:38:09.271Z,4.17
2022-12-07T06:40:35.962Z,5.03
2022-12-07T06:43:02.572Z,4.63
2022-12-07T06:45:29.368Z,13.03
2022-12-07T06:47:56.128Z,4.43
2022-12-07T06:50:23.083Z,7.30
2022-12-07T06:52:49.964Z,5.70
2022-12-07T06:55:16.780Z,8.00
2022-12-07T06:57:43.586Z,5.03
2022-12-07T07:00:11.041Z,6.60
2022-12-07T07:02:37.836Z,12.40
2022-12-07T07:05:04.801Z,5.80
2022-12-07T07:07:31.497Z,15.63
2022-12-07T07:09:58.228Z,7.67
2022-12-07T07:12:24.913Z,13.33
2022-12-07T07:14:51.644Z,5.73
2022-12-07T07:17:18.391Z,4.80
2022-12-07T07:19:45.179Z,7.03
2022-12-07T07:22:12.022Z,4.37
2022-12-07T07:24:38.790Z,4.93
2022-12-07T07:27:05.605Z,4.57
2022-12-07T07:29:32.354Z,7.83
2022-12-07T07:32:04.870Z,59.37
2022-12-07T07:34:33.252Z,49.03
2022-12-07T07:37:00.010Z,35.23
2022-12-07T07:39:26.617Z,36.23
2022-12-07T07:41:53.252Z,40.03
2022-12-07T07:44:19.900Z,45.00
2022-12-07T07:46:46.632Z,51.83
2022-12-07T07:49:13.299Z,30.83
2022-12-07T07:51:40.123Z,21.27
2022-12-07T07:54:06.779Z,14.23
2022-12-07T07:56:43.456Z,9.00
2022-12-07T07:59:10.241Z,13.40
2022-12-07T08:01:37.068Z,9.03
2022-12-07T08:04:03.932Z,7.30
2022-12-07T08:06:32.417Z,4.57
2022-12-07T08:08:59.722Z,5.50
2022-12-07T08:11:26.330Z,5.20
2022-12-07T08:13:53.001Z,6.80
2022-12-07T08:16:19.868Z,9.80
2022-12-07T08:18:46.599Z,3.63
2022-12-07T08:21:15.542Z,5.50
2022-12-07T08:23:42.415Z,6.83
2022-12-07T08:26:11.621Z,4.37
2022-12-07T08:28:38.547Z,4.07
2022-12-07T08:31:17.076Z,9.20
2022-12-07T08:33:45.200Z,17.40
2022-12-07T08:36:13.551Z,4.27
2022-12-07T08:38:44.929Z,3.30
2022-12-07T08:41:18.693Z,2.60
2022-12-07T08:43:45.390Z,5.70
2022-12-07T08:46:20.059Z,3.60
2022-12-07T08:48:52.761Z,7.03
2022-12-07T08:51:20.069Z,3.83
2022-12-07T08:53:46.903Z,5.20
2022-12-07T08:56:13.713Z,9.80
2022-12-07T08:58:40.842Z,13.27
2022-12-07T09:01:07.724Z,6.27
2022-12-07T09:03:34.518Z,5.57
2022-12-07T09:06:01.466Z,6.67
2022-12-07T09:08:32.608Z,9.10
2022-12-07T09:10:59.220Z,4.30
2022-12-07T09:13:25.971Z,8.90
2022-12-07T09:15:52.770Z,3.27
2022-12-07T09:18:19.578Z,3.77
2022-12-07T09:20:46.310Z,3.63
2022-12-07T09:23:13.054Z,4.40
2022-12-07T09:25:39.791Z,10.20
2022-12-07T09:28:06.542Z,6.70
2022-12-07T09:30:39.161Z,7.97
2022-12-07T09:33:19.688Z,6.53
2022-12-07T09:35:47.640Z,6.40
2022-12-07T09:38:14.464Z,4.60
2022-12-07T09:40:41.951Z,3.53
2022-12-07T09:43:18.160Z,5.63
2022-12-07T09:45:48.705Z,4.20
2022-12-07T09:48:20.377Z,6.03
2022-12-07T09:50:48.811Z,4.57
2022-12-07T09:53:35.860Z,5.33
2022-12-07T09:56:03.220Z,3.60
2022-12-07T09:58:32.047Z,5.03
2022-12-07T10:01:07.097Z,4.63
2022-12-07T10:03:33.967Z,3.70
2022-12-07T10:06:00.919Z,4.40
2022-12-07T10:08:27.820Z,3.80
2022-12-07T10:10:57.488Z,6.40
2022-12-07T10:13:36.580Z,5.67
2022-12-07T10:16:07.128Z,3.97
2022-12-07T10:18:44.969Z,4.20
2022-12-07T10:21:13.791Z,5.00
2022-12-07T10:23:42.802Z,10.63
2022-12-07T10:26:29.126Z,8.17
2022-12-07T10:28:57.360Z,4.93
2022-12-07T10:31:25.037Z,3.90
2022-12-07T10:34:02.978Z,5.80
2022-12-07T10:36:36.818Z,6.00
2022-12-07T10:39:15.440Z,6.10
2022-12-07T10:41:59.626Z,5.77
2022-12-07T10:44:34.361Z,6.03
2022-12-07T10:47:39.792Z,7.00
2022-12-07T10:50:20.129Z,8.00
2022-12-07T10:53:11.909Z,10.73
2022-12-07T10:56:04.297Z,5.03
2022-12-07T10:58:59.174Z,5.33
2022-12-07T11:01:42.670Z,8.10
2022-12-07T11:04:24.118Z,5.67
2022-12-07T11:07:08.757Z,8.13
2022-12-07T11:13:03.656Z,8.47
2022-12-07T11:15:41.379Z,4.30
2022-12-07T11:18:25.699Z,3.00
2022-12-07T11:21:07.310Z,6.53
2022-12-07T11:23:52.886Z,4.53
2022-12-07T11:26:46.629Z,4.63
2022-12-07T11:29:29.560Z,4.37
2022-12-07T11:32:20.548Z,6.40
2022-12-07T11:35:00.498Z,15.70
2022-12-07T11:37:36.491Z,10.17
2022-12-07T11:40:16.482Z,5.67
2022-12-07T11:42:47.798Z,4.20
2022-12-07T11:45:28.278Z,5.13
2022-12-07T11:48:00.077Z,3.43
2022-12-07T11:50:44.181Z,3.57
2022-12-07T11:53:31.176Z,26.63
2022-12-07T11:55:59.427Z,11.70
2022-12-07T11:58:37.111Z,17.73
2022-12-07T12:01:12.570Z,10.67
2022-12-07T12:03:45.915Z,2.27
2022-12-07T12:06:16.498Z,26.77
2022-12-07T12:15:42.187Z,9.80
2022-12-07T12:18:26.876Z,4.77
2022-12-07T12:21:01.947Z,31.23
2022-12-07T12:23:49.949Z,8.83
2022-12-07T12:26:22.283Z,8.13
2022-12-07T12:28:56.209Z,12.00
2022-12-07T12:31:22.937Z,12.07
2022-12-07T12:33:52.058Z,9.80
2022-12-07T12:36:45.501Z,15.27
2022-12-07T12:39:19.803Z,11.90
2022-12-07T12:41:49.314Z,12.63
2022-12-07T12:44:15.966Z,16.43
2022-12-07T12:47:04.363Z,4.43
2022-12-07T12:49:44.287Z,9.50
2022-12-07T12:52:47.238Z,26.70
2022-12-07T12:55:22.037Z,13.37
2022-12-07T12:58:19.671Z,15.37
2022-12-07T13:01:27.554Z,19.50
2022-12-07T13:03:55.987Z,25.57
2022-12-07T13:06:25.792Z,9.80
2022-12-07T13:08:54.519Z,11.07
2022-12-07T13:11:30.369Z,9.27
2022-12-07T13:14:34.928Z,8.07
2022-12-07T13:17:01.806Z,11.70
2022-12-07T13:19:55.079Z,8.90
2022-12-07T13:22:39.035Z,4.30
2022-12-07T13:25:31.689Z,5.63
2022-12-07T13:28:17.335Z,3.23
2022-12-07T13:31:08.887Z,17.70
2022-12-07T13:33:36.527Z,9.23
2022-12-07T13:36:03.874Z,3.83
2022-12-07T13:38:35.024Z,8.50
2022-12-07T13:41:12.761Z,21.00
2022-12-07T13:44:03.169Z,11.27
2022-12-07T13:46:45.989Z,3.47
2022-12-07T13:49:24.688Z,6.63
2022-12-07T13:51:53.082Z,10.83
2022-12-07T13:54:20.530Z,8.77
2022-12-07T13:56:53.068Z,15.17
2022-12-07T13:59:27.603Z,9.33
2022-12-07T14:01:55.128Z,12.57
2022-12-07T14:04:49.420Z,12.67
2022-12-07T14:07:27.583Z,10.70
2022-12-07T14:09:56.617Z,9.03
2022-12-07T14:12:24.348Z,13.97
2022-12-07T14:14:51.453Z,20.27
2022-12-07T14:17:25.710Z,16.80
2022-12-07T14:20:02.561Z,9.93
2022-12-07T14:22:39.479Z,26.07
2022-12-07T14:25:17.562Z,13.37
2022-12-07T14:27:57.279Z,10.83
2022-12-07T14:30:26.142Z,18.03
2022-12-07T14:33:01.899Z,13.30
2022-12-07T14:35:29.620Z,20.50
2022-12-07T14:37:56.504Z,19.17
2022-12-07T14:40:25.801Z,18.03
2022-12-07T14:42:55.950Z,7.00
2022-12-07T14:45:24.145Z,12.60
2022-12-07T14:53:31.631Z,15.10
2022-12-07T14:55:58.425Z,17.27
2022-12-07T14:58:25.100Z,19.27
2022-12-07T15:00:51.961Z,16.10
2022-12-07T15:03:20.128Z,16.77
2022-12-07T15:05:46.889Z,24.33
2022-12-07T15:08:14.159Z,21.30
2022-12-07T15:10:41.337Z,16.10
2022-12-07T15:13:27.447Z,11.43
2022-12-07T15:15:55.300Z,8.40
2022-12-07T15:18:23.932Z,11.23
2022-12-07T15:20:50.943Z,12.57
2022-12-07T15:23:17.681Z,5.00
2022-12-07T15:25:45.449Z,9.03
2022-12-07T15:28:12.561Z,12.97
2022-12-07T15:30:40.258Z,9.33
2022-12-07T15:33:07.107Z,5.90
2022-12-07T15:35:33.782Z,5.50
2022-12-07T15:38:00.502Z,8.13
2022-12-07T15:40:27.219Z,5.50
2022-12-07T15:42:53.921Z,4.20
2022-12-07T15:45:20.683Z,5.40
2022-12-07T15:48:26.325Z,5.03
2022-12-07T15:50:34.319Z,8.83
2022-12-07T15:53:01.004Z,8.77
2022-12-07T15:55:27.794Z,9.53
2022-12-07T15:57:54.503Z,12.70
2022-12-07T16:00:21.586Z,15.03
2022-12-07T16:02:48.303Z,23.43
2022-12-07T16:05:15.430Z,10.73
2022-12-07T16:07:42.174Z,15.00
2022-12-07T16:10:09.381Z,10.33
2022-12-07T16:12:36.110Z,5.97
2022-12-07T16:15:03.008Z,13.63
2022-12-07T16:17:29.975Z,14.93
2022-12-07T16:19:56.651Z,9.50
2022-12-07T16:22:23.388Z,26.30
2022-12-07T16:24:50.121Z,19.27
2022-12-07T16:27:16.960Z,9.90
2022-12-07T16:29:46.094Z,14.87
2022-12-07T16:32:12.900Z,9.30
2022-12-07T16:34:40.909Z,15.20
2022-12-07T16:37:07.681Z,20.37
2022-12-07T16:39:35.364Z,15.70
2022-12-07T16:42:02.365Z,13.93
2022-12-07T16:44:29.435Z,6.73
2022-12-07T16:46:56.300Z,9.60
2022-12-07T16:49:25.388Z,7.60
2022-12-07T16:52:14.714Z,15.03
2022-12-07T16:54:39.379Z,10.43
2022-12-07T16:57:06.081Z,10.33
2022-12-07T16:59:32.869Z,7.37
2022-12-07T17:01:59.517Z,3.40
2022-12-07T17:04:26.316Z,7.73
2022-12-07T17:06:53.143Z,3.20
2022-12-07T17:09:21.515Z,7.23
2022-12-07T17:11:49.044Z,3.40
2022-12-07T17:14:34.298Z,2.60
2022-12-07T17:17:00.931Z,2.40
2022-12-07T17:19:27.627Z,4.07
2022-12-07T17:21:54.332Z,1.60
2022-12-07T17:24:21.121Z,2.50
2022-12-07T17:26:48.040Z,3.07
2022-12-07T17:29:16.167Z,4.00
2022-12-07T17:31:49.258Z,5.90
2022-12-07T17:34:17.909Z,5.17
2022-12-07T17:36:46.202Z,4.47
2022-12-07T17:39:16.260Z,2.70
2022-12-07T17:42:01.291Z,1.73
2022-12-07T17:44:28.226Z,1.93
2022-12-07T17:46:57.704Z,3.23
2022-12-07T17:49:24.842Z,3.03
2022-12-07T17:52:10.300Z,2.97
2022-12-07T17:54:37.130Z,2.93
2022-12-07T17:57:04.071Z,7.53
2022-12-07T17:59:30.990Z,5.80
2022-12-07T18:01:57.714Z,11.10
2022-12-07T18:04:24.634Z,6.53
2022-12-07T18:06:52.483Z,6.83
2022-12-07T18:09:19.813Z,4.23
2022-12-07T18:11:46.555Z,5.90
2022-12-07T18:14:13.231Z,2.80
2022-12-07T18:16:40.181Z,1.53
2022-12-07T18:19:09.030Z,0.90
2022-12-07T18:21:36.308Z,3.70
2022-12-07T18:24:04.663Z,3.43
2022-12-07T18:26:33.728Z,3.83
2022-12-07T18:29:01.025Z,3.83
2022-12-07T18:31:28.514Z,3.07
2022-12-07T18:33:56.440Z,5.33
2022-12-07T18:36:24.037Z,3.90
2022-12-07T18:38:51.475Z,5.10
2022-12-07T18:41:18.221Z,3.70
2022-12-07T18:43:45.092Z,6.40
2022-12-07T18:46:19.957Z,6.43
2022-12-07T18:48:47.617Z,8.93
2022-12-07T18:51:15.796Z,7.80
2022-12-07T18:53:43.239Z,15.83
2022-12-07T18:56:18.390Z,3.40
2022-12-07T18:59:10.990Z,11.40
2022-12-07T19:01:37.876Z,7.57
2022-12-07T19:04:04.882Z,6.77
2022-12-07T19:06:31.895Z,8.10
2022-12-07T19:08:58.976Z,8.00
2022-12-07T19:11:46.879Z,7.70
2022-12-07T19:14:14.830Z,2.30
2022-12-07T19:16:42.787Z,2.30
2022-12-07T19:19:09.784Z,2.23
2022-12-07T19:21:36.581Z,2.77
2022-12-07T19:24:04.959Z,3.47
2022-12-07T19:26:32.108Z,8.00
2022-12-07T19:28:58.989Z,7.70
2022-12-07T19:31:25.709Z,2.87
2022-12-07T19:33:52.330Z,3.63
2022-12-07T19:36:19.109Z,4.77
2022-12-07T19:38:45.822Z,5.00
2022-12-07T19:41:33.556Z,6.50
2022-12-07T19:44:00.923Z,6.63
2022-12-07T19:46:28.101Z,5.10
2022-12-07T19:48:55.162Z,5.80
2022-12-07T19:51:22.020Z,5.73
2022-12-07T19:53:48.681Z,4.83
2022-12-07T19:56:16.353Z,10.50
2022-12-07T19:58:43.008Z,8.40
2022-12-07T20:01:10.364Z,11.30
2022-12-07T20:03:37.121Z,6.73
2022-12-07T20:06:09.489Z,8.47
2022-12-07T20:08:36.268Z,6.80
2022-12-07T20:11:22.966Z,11.70
2022-12-07T20:13:49.706Z,2.90
2022-12-07T20:16:19.723Z,5.10
2022-12-07T20:18:51.607Z,5.27
2022-12-07T20:21:22.872Z,5.43
2022-12-07T20:23:49.499Z,5.10
2022-12-07T20:26:16.285Z,5.53
2022-12-07T20:28:46.461Z,7.43
2022-12-07T20:31:14.689Z,4.77
2022-12-07T20:33:42.710Z,5.33
2022-12-07T20:36:10.275Z,3.57
2022-12-07T20:38:37.559Z,3.70
2022-12-07T20:41:06.728Z,4.30
2022-12-07T20:43:34.391Z,3.00
2022-12-07T20:46:01.229Z,5.97
2022-12-07T20:48:28.212Z,6.10
2022-12-07T20:50:55.239Z,5.73
2022-12-07T20:53:21.852Z,4.87
2022-12-07T20:55:48.650Z,5.83
2022-12-07T20:58:15.921Z,4.53
2022-12-07T21:00:42.555Z,5.10
2022-12-07T21:03:09.661Z,5.47
2022-12-07T21:05:36.351Z,6.03
2022-12-07T21:08:03.582Z,7.70
2022-12-07T21:10:30.394Z,1.93
2022-12-07T21:12:57.120Z,2.63
2022-12-07T21:15:23.892Z,14.43
2022-12-07T21:17:50.602Z,7.30
2022-12-07T21:20:17.398Z,7.57
2022-12-07T21:22:44.011Z,8.70
2022-12-07T21:25:10.808Z,13.23
2022-12-07T21:27:37.424Z,8.60
2022-12-07T21:30:04.621Z,4.43
2022-12-07T21:32:31.203Z,2.40
2022-12-07T21:34:57.807Z,6.63
2022-12-07T21:37:24.372Z,1.50
2022-12-07T21:39:50.970Z,2.00
2022-12-07T21:42:17.589Z,1.40
2022-12-07T21:44:44.172Z,6.40
2022-12-07T21:47:10.828Z,1.90
2022-12-07T21:49:37.416Z,3.00
2022-12-07T21:52:04.768Z,2.23
2022-12-07T21:54:31.772Z,2.10
2022-12-07T21:56:58.361Z,3.10
2022-12-07T21:59:25.150Z,1.60
2022-12-07T22:01:52.721Z,3.50
2022-12-07T22:04:24.648Z,3.33
2022-12-07T22:06:52.497Z,2.67
2022-12-07T22:09:19.552Z,3.60
2022-12-07T22:11:46.850Z,2.73
2022-12-07T22:14:32.393Z,8.50
2022-12-07T22:16:59.152Z,8.07
2022-12-07T22:19:26.355Z,6.13
2022-12-07T22:21:52.969Z,5.87
2022-12-07T22:24:19.580Z,7.77
2022-12-07T22:26:46.335Z,9.27
2022-12-07T22:29:13.084Z,6.97
2022-12-07T22:31:41.152Z,12.00
2022-12-07T22:34:14.983Z,7.87
2022-12-07T22:36:41.618Z,10.50
2022-12-07T22:39:09.359Z,12.87
2022-12-07T22:41:36.269Z,10.67
2022-12-07T22:44:05.603Z,12.23
2022-12-07T22:46:33.947Z,16.30
2022-12-07T22:49:00.770Z,14.23
2022-12-07T22:51:38.619Z,9.93
2022-12-07T22:54:07.878Z,9.03
2022-12-07T22:56:36.328Z,10.90
2022-12-07T22:59:04.617Z,7.10
2022-12-07T23:01:31.159Z,7.17
2022-12-07T23:03:57.975Z,9.47
2022-12-07T23:06:29.820Z,6.23
2022-12-07T23:08:57.885Z,7.77
2022-12-07T23:11:47.237Z,6.90
2022-12-07T23:14:32.864Z,7.97
2022-12-07T23:17:00.126Z,11.47
2022-12-07T23:19:26.860Z,4.67
2022-12-07T23:21:53.690Z,10.80
2022-12-07T23:24:20.229Z,6.23
2022-12-07T23:26:47.363Z,7.63
2022-12-07T23:29:17.758Z,7.60
2022-12-07T23:31:44.759Z,5.83
2022-12-07T23:34:11.581Z,5.80
2022-12-07T23:36:38.227Z,7.00
2022-12-07T23:39:05.161Z,7.73
2022-12-07T23:41:31.837Z,9.23
2022-12-07T23:44:00.110Z,8.57
2022-12-07T23:46:30.052Z,8.73
2022-12-07T23:48:58.217Z,9.27
2022-12-07T23:51:25.414Z,8.47
2022-12-07T23:53:53.288Z,9.83
2022-12-07T23:56:22.432Z,5.93
2022-12-07T23:58:49.803Z,9.90
